23 de mayo de 2022

Hora Código Tiempo Temp. Visibilidad Nubes Viento METAR/SPECI
21:20
V
19 °C 10 km+ - 200°   200° 5 kt METAR EDDS 231920Z AUTO 20005KT 140V260 CAVOK 19/13 Q1004 NOSIG
20:50
V
18 °C 10 km+ - 200°   200° 6 kt METAR EDDS 231850Z AUTO 20006KT 160V250 CAVOK 18/14 Q1004 NOSIG
20:20
V
18 °C 10 km+ - 190°   190° 6 kt METAR EDDS 231820Z AUTO 19006KT 140V230 CAVOK 18/14 Q1003 NOSIG
19:50
V
18 °C 10 km+ - Var   Var 2 kt METAR EDDS 231750Z AUTO VRB02KT CAVOK 18/14 Q1003 TEMPO 22015G25KT SHRA
19:20
V
18 °C 10 km+ - 090°   090° 3 kt METAR EDDS 231720Z AUTO 09003KT 050V150 CAVOK 18/14 Q1003 TEMPO 22015G25KT SHRA
18:50
V
19 °C 10 km+ - 150°   150° 5 kt METAR EDDS 231650Z AUTO 15005KT 090V190 9999 FEW046 19/15 Q1003 TEMPO 22015G25KT SHRA
18:20
V
20 °C 10 km+ - 150°   150° 8 kt METAR EDDS 231620Z AUTO 15008KT 100V180 9999 -RA NSC 20/15 Q1003 TEMPO SHRA
17:50
V
21 °C 10 km+ - 180°   180° 6 kt METAR EDDS 231550Z AUTO 18006KT 100V230 9999 -RA FEW047 21/15 Q1004 RESHRA NOSIG
17:20
V
22 °C 10 km+ - 200°   200° 6 kt METAR EDDS 231520Z AUTO 20006KT 150V260 CAVOK 22/15 Q1004 TEMPO 22020G35KT TSRA BKN040CB
16:50
V
22 °C 10 km+ - 210°   210° 6 kt METAR EDDS 231450Z AUTO 21006KT 120V290 CAVOK 22/14 Q1003 TEMPO 22020G35KT TSRA BKN040CB
16:20
V
21 °C 10 km+ - Var   Var 4 kt METAR EDDS 231420Z AUTO VRB04KT CAVOK 21/15 Q1003 TEMPO 22015G25KT SHRA
15:50
V
21 °C 10 km+ - 190°   190° 5 kt METAR EDDS 231350Z AUTO 19005KT 120V290 CAVOK 21/16 Q1004 NOSIG
15:20
V
19 °C 10 km+ - 220°   220° 6 kt METAR EDDS 231320Z AUTO 22006KT 150V270 CAVOK 19/16 Q1004 NOSIG
14:50
V
17 °C 10 km+ - 170°   170° 4 kt METAR EDDS 231250Z AUTO 17004KT 120V230 CAVOK 17/15 Q1003 NOSIG
14:20
V
16 °C 10 km+ - 040°   040° 12 kt METAR EDDS 231220Z AUTO 04012KT 9999 -RA FEW002 16/15 Q1002 RESHRA NOSIG
13:50
V
18 °C 10 km+ - 220°   220° 12 22 kt METAR EDDS 231150Z AUTO 22012G22KT 160V290 9999 -RA FEW046 18/14 Q1007 RESHRA TEMPO 24020G35KT 2500 +SHRA
13:20
V
19 °C 9 km - 230°   230° 4 kt METAR EDDS 231120Z AUTO 23004KT 160V280 9000 -RA FEW034 19/16 Q1007 RESHRA TEMPO 24020G35KT 2500 +SHRA
12:50
V
20 °C 10 km+ - 260°   260° 5 kt METAR EDDS 231050Z AUTO 26005KT 220V320 CAVOK 20/15 Q1006 TEMPO 24025G40KT 2500 +TSRA
12:20
V
21 °C 10 km+ - Var   Var 2 kt METAR EDDS 231020Z AUTO VRB02KT CAVOK 21/15 Q1006 TEMPO FM1050 22025G40KT 2500 TSRA BKN030CB
11:50
V
20 °C 10 km+ - 070°   070° 3 kt METAR EDDS 230950Z AUTO 07003KT 030V090 CAVOK 20/16 Q1005 TEMPO FM1050 22025G40KT 1500 TSGRRA BKN030CB
11:20
V
19 °C 10 km+ - Var   Var 2 kt METAR EDDS 230920Z AUTO VRB02KT 9999 -SHRA FEW049 FEW///TCU 19/14 Q1005 TEMPO FM1050 22025G40KT 1500 TSRAGR BKN030CB
10:50
V
19 °C 10 km+ - Var   Var 2 kt METAR EDDS 230850Z AUTO VRB02KT CAVOK 19/13 Q1006 NOSIG
10:20
V
18 °C 10 km+ - Var   Var 2 kt METAR EDDS 230820Z AUTO VRB02KT CAVOK 18/13 Q1006 NOSIG
09:50
V
17 °C 10 km+ - Var   Var 2 kt METAR EDDS 230750Z AUTO VRB02KT CAVOK 17/13 Q1006 NOSIG
09:20
V
16 °C 10 km+ - 090°   090° 6 kt METAR EDDS 230720Z AUTO 09006KT 040V150 CAVOK 16/13 Q1006 NOSIG
08:50
V
15 °C 10 km+ - 090°   090° 7 kt METAR EDDS 230650Z AUTO 09007KT 070V140 CAVOK 15/13 Q1006 RESHGS NOSIG
08:20
V
15 °C 10 km+ - 100°   100° 5 kt METAR EDDS 230620Z AUTO 10005KT 050V180 9999 -SHRA FEW///TCU 15/13 Q1007 NOSIG
07:50
V
14 °C 10 km+ - 100°   100° 5 kt METAR EDDS 230550Z AUTO 10005KT 070V170 9999 -RA NSC 14/12 Q1008 NOSIG
07:20
V
13 °C 10 km+ - 120°   120° 4 kt METAR EDDS 230520Z AUTO 12004KT 080V190 9999 FEW036 13/12 Q1009 RETSGR NOSIG
06:50
V
14 °C 9 km - 300°   300° 10 kt METAR EDDS 230450Z AUTO 30010KT 9000 +TSGRRA FEW006 BKN///CB 14/11 Q1010 BECMG 29005KT NSW
06:20
V
14 °C 10 km+ - 270°   270° 5 kt METAR EDDS 230420Z AUTO 27005KT 9999 SHRA FEW///CB 14/10 Q1007 TEMPO TL0500 4000 TSRA
05:50
V
12 °C 10 km+ - Var   Var 1 kt METAR EDDS 230350Z AUTO VRB01KT CAVOK 12/10 Q1007
05:20
V
12 °C 10 km+ - 170°   170° 1 kt METAR EDDS 230320Z AUTO 17001KT CAVOK 12/10 Q1007
04:50
V
12 °C 10 km+ - 080°   080° 2 kt METAR EDDS 230250Z AUTO 08002KT CAVOK 12/10 Q1007
04:20
V
13 °C 10 km+ - Var   Var 2 kt METAR EDDS 230220Z AUTO VRB02KT CAVOK 13/10 Q1008
03:50
V
13 °C 10 km+ - Var   Var 2 kt METAR EDDS 230150Z AUTO VRB02KT CAVOK 13/10 Q1008
03:20
V
13 °C 10 km+ - Var   Var 1 kt METAR EDDS 230120Z AUTO VRB01KT CAVOK 13/10 Q1008
02:50
V
14 °C 10 km+ - Var   Var 2 kt METAR EDDS 230050Z AUTO VRB02KT CAVOK 14/10 Q1008
02:20
V
15 °C 10 km+ - Var   Var 2 kt METAR EDDS 230020Z AUTO VRB02KT CAVOK 15/10 Q1009
01:50
V
15 °C 10 km+ - Var   Var 2 kt METAR EDDS 222350Z AUTO VRB02KT CAVOK 15/10 Q1009
01:20
V
15 °C 10 km+ - Var   Var 1 kt METAR EDDS 222320Z AUTO VRB01KT CAVOK 15/10 Q1010
00:50
V
15 °C 10 km+ - 330°   330° 1 kt METAR EDDS 222250Z AUTO 33001KT CAVOK 15/10 Q1010
00:20
V
15 °C 10 km+ - Var   Var 1 kt METAR EDDS 222220Z AUTO VRB01KT CAVOK 15/10 Q1010

22 de mayo de 2022

Hora Código Tiempo Temp. Visibilidad Nubes Viento METAR/SPECI
23:50
V
16 °C 10 km+ - Var   Var 1 kt METAR EDDS 222150Z AUTO VRB01KT CAVOK 16/11 Q1011
23:20
V
18 °C 10 km+ - Var   Var 1 kt METAR EDDS 222120Z AUTO VRB01KT CAVOK 18/10 Q1011
22:50
V
17 °C 10 km+ - 330°   330° 4 kt METAR EDDS 222050Z AUTO 33004KT CAVOK 17/11 Q1011
22:20
V
18 °C 10 km+ - 350°   350° 3 kt METAR EDDS 222020Z AUTO 35003KT 320V020 CAVOK 18/10 Q1011
21:50
V
17 °C 10 km+ - Var   Var 1 kt METAR EDDS 221950Z AUTO VRB01KT CAVOK 17/10 Q1011 NOSIG
21:20
V
19 °C 10 km+ - Var   Var 1 kt METAR EDDS 221920Z AUTO VRB01KT CAVOK 19/09 Q1011 NOSIG
20:50
V
20 °C 10 km+ - Var   Var 2 kt METAR EDDS 221850Z AUTO VRB02KT CAVOK 20/09 Q1011 RESHRA BECMG 07005KT
20:20
V
21 °C 10 km+ - 360°   360° 3 kt METAR EDDS 221820Z AUTO 36003KT 330V050 CAVOK 21/07 Q1012 NOSIG
19:50
V
21 °C 10 km+ - 130°   130° 2 kt METAR EDDS 221750Z AUTO 13002KT CAVOK 21/08 Q1012 NOSIG
19:20
V
21 °C 10 km+ - 040°   040° 6 kt METAR EDDS 221720Z AUTO 04006KT CAVOK 21/08 Q1011 NOSIG
18:50
V
21 °C 10 km+ - 060°   060° 6 kt METAR EDDS 221650Z AUTO 06006KT 010V080 CAVOK 21/08 Q1012
18:20
V
22 °C 10 km+ - 040°   040° 6 kt METAR EDDS 221620Z AUTO 04006KT CAVOK 22/08 Q1012 RESHRA NOSIG
17:50
V
22 °C 10 km+ - 020°   020° 7 kt METAR EDDS 221550Z AUTO 02007KT 350V050 9999 -SHRA FEW///TCU 22/08 Q1013 NOSIG
17:20
V
23 °C 10 km+ - 010°   010° 5 kt METAR EDDS 221520Z AUTO 01005KT 300V070 CAVOK 23/08 Q1013 NOSIG
16:50
V
24 °C 10 km+ - 030°   030° 5 kt METAR EDDS 221450Z AUTO 03005KT 300V110 CAVOK 24/10 Q1013 NOSIG
16:20
V
25 °C 10 km+ - Var   Var 4 kt METAR EDDS 221420Z AUTO VRB04KT CAVOK 25/10 Q1013
15:50
V
25 °C 10 km+ - Var   Var 2 kt METAR EDDS 221350Z AUTO VRB02KT CAVOK 25/06 Q1013 NOSIG
15:20
V
23 °C 10 km+ - Var   Var 3 kt METAR EDDS 221320Z AUTO VRB03KT CAVOK 23/08 Q1013 NOSIG
14:50
V
24 °C 10 km+ - 130°   130° 3 kt METAR EDDS 221250Z AUTO 13003KT 060V220 CAVOK 24/09 Q1014 NOSIG
14:20
V
23 °C 10 km+ - Var   Var 4 kt METAR EDDS 221220Z AUTO VRB04KT CAVOK 23/08 Q1014 NOSIG
13:50
V
22 °C 10 km+ - 360°   360° 4 kt METAR EDDS 221150Z AUTO 36004KT 280V090 CAVOK 22/10 Q1015
13:20
V
23 °C 10 km+ - Var   Var 3 kt METAR EDDS 221120Z AUTO VRB03KT CAVOK 23/09 Q1015 NOSIG
12:50
V
22 °C 10 km+ - Var   Var 2 kt METAR EDDS 221050Z AUTO VRB02KT CAVOK 22/09 Q1015 NOSIG
12:20
V
21 °C 10 km+ - Var   Var 2 kt METAR EDDS 221020Z AUTO VRB02KT CAVOK 21/09 Q1016 NOSIG
11:50
V
21 °C 10 km+ - Var   Var 3 kt METAR EDDS 220950Z AUTO VRB03KT CAVOK 21/09 Q1016 NOSIG
11:20
V
20 °C 10 km+ - Var   Var 3 kt METAR EDDS 220920Z AUTO VRB03KT CAVOK 20/09 Q1016 NOSIG
10:50
V
19 °C 10 km+ - Var   Var 2 kt METAR EDDS 220850Z AUTO VRB02KT CAVOK 19/09 Q1016 NOSIG
10:20
V
19 °C 10 km+ - Var   Var 2 kt METAR EDDS 220820Z AUTO VRB02KT CAVOK 19/10 Q1016 NOSIG
09:50
V
18 °C 10 km+ - Var   Var 2 kt METAR EDDS 220750Z AUTO VRB02KT CAVOK 18/09 Q1017 NOSIG
09:20
V
17 °C 10 km+ - Var   Var 2 kt METAR EDDS 220720Z AUTO VRB02KT CAVOK 17/10 Q1017 NOSIG
08:50
V
16 °C 10 km+ - Var   Var 1 kt METAR EDDS 220650Z AUTO VRB01KT CAVOK 16/10 Q1017 NOSIG
08:20
V
15 °C 10 km+ - Var   Var 1 kt METAR EDDS 220620Z AUTO VRB01KT CAVOK 15/09 Q1017 NOSIG
07:50
V
14 °C 10 km+ - Var   Var 1 kt METAR EDDS 220550Z AUTO VRB01KT CAVOK 14/10 Q1017 NOSIG
07:20
V
11 °C 10 km+ - 040°   040° 3 kt METAR EDDS 220520Z AUTO 04003KT 010V080 CAVOK 11/09 Q1017 NOSIG
06:50
V
11 °C 10 km+ - 060°   060° 1 kt METAR EDDS 220450Z AUTO 06001KT CAVOK 11/08 Q1017 NOSIG
06:20
V
9 °C 10 km+ - Var   Var 1 kt METAR EDDS 220420Z AUTO VRB01KT CAVOK 09/08 Q1018 NOSIG
05:50
V
8 °C 10 km+ - 080°   080° 1 kt METAR EDDS 220350Z AUTO 08001KT CAVOK 08/08 Q1018
05:20
V
8 °C 10 km+ - Var   Var 2 kt METAR EDDS 220320Z AUTO VRB02KT CAVOK 08/07 Q1018
04:50
V
8 °C 10 km+ - 100°   100° 1 kt METAR EDDS 220250Z AUTO 10001KT CAVOK 08/08 Q1018
04:20
V
8 °C 10 km+ - Var   Var 1 kt METAR EDDS 220220Z AUTO VRB01KT CAVOK 08/07 Q1019
03:50
V
9 °C 10 km+ - 020°   020° 2 kt METAR EDDS 220150Z AUTO 02002KT CAVOK 09/08 Q1019
03:20
V
10 °C 10 km+ - Var   Var 2 kt METAR EDDS 220120Z AUTO VRB02KT CAVOK 10/08 Q1019
02:50
V
10 °C 10 km+ - 050°   050° 2 kt METAR EDDS 220050Z AUTO 05002KT CAVOK 10/08 Q1019
02:20
V
10 °C 10 km+ - Var   Var 2 kt METAR EDDS 220020Z AUTO VRB02KT CAVOK 10/08 Q1019
01:50
V
10 °C 10 km+ - Var   Var 1 kt METAR EDDS 212350Z AUTO VRB01KT CAVOK 10/08 Q1019
01:20
V
11 °C 10 km+ - Var   Var 1 kt METAR EDDS 212320Z AUTO VRB01KT CAVOK 11/09 Q1019
00:50
V
10 °C 10 km+ - Var   Var 1 kt METAR EDDS 212250Z AUTO VRB01KT CAVOK 10/07 Q1020
00:20
V
12 °C 10 km+ - Var   Var 2 kt METAR EDDS 212220Z AUTO VRB02KT CAVOK 12/08 Q1020

21 de mayo de 2022

Hora Código Tiempo Temp. Visibilidad Nubes Viento METAR/SPECI
23:50
V
14 °C 10 km+ - 270°   270° 2 kt METAR EDDS 212150Z AUTO 27002KT CAVOK 14/08 Q1020
23:20
V
13 °C 10 km+ - 260°   260° 2 kt METAR EDDS 212120Z AUTO 26002KT CAVOK 13/08 Q1020
22:50
V
15 °C 10 km+ - 310°   310° 2 kt METAR EDDS 212050Z AUTO 31002KT CAVOK 15/08 Q1020
22:20
V
15 °C 10 km+ - Var   Var 1 kt METAR EDDS 212020Z AUTO VRB01KT CAVOK 15/08 Q1020
21:50
V
16 °C 10 km+ - Var   Var 1 kt METAR EDDS 211950Z AUTO VRB01KT CAVOK 16/08 Q1020 NOSIG
21:20
V
17 °C 10 km+ - 010°   010° 4 kt METAR EDDS 211920Z AUTO 01004KT 340V050 CAVOK 17/08 Q1020 NOSIG
20:50
V
18 °C 10 km+ - 030°   030° 5 kt METAR EDDS 211850Z AUTO 03005KT 010V070 CAVOK 18/08 Q1020 NOSIG
20:20
V
19 °C 10 km+ - 030°   030° 4 kt METAR EDDS 211820Z AUTO 03004KT CAVOK 19/08 Q1020 NOSIG
19:50
V
19 °C 10 km+ - 360°   360° 4 kt METAR EDDS 211750Z AUTO 36004KT 330V040 CAVOK 19/08 Q1020 NOSIG
19:20
V
20 °C 10 km+ - 330°   330° 8 kt METAR EDDS 211720Z AUTO 33008KT 310V010 CAVOK 20/08 Q1020 NOSIG
18:50
V
21 °C 10 km+ - 320°   320° 8 kt METAR EDDS 211650Z AUTO 32008KT 300V360 CAVOK 21/08 Q1020 NOSIG
18:20
V
21 °C 10 km+ - 340°   340° 10 kt METAR EDDS 211620Z AUTO 34010KT CAVOK 21/08 Q1020 NOSIG
17:50
V
21 °C 10 km+ - 310°   310° 9 kt METAR EDDS 211550Z AUTO 31009KT CAVOK 21/08 Q1021 NOSIG
17:20
V
21 °C 10 km+ - 330°   330° 10 kt METAR EDDS 211520Z AUTO 33010KT CAVOK 21/07 Q1021 NOSIG
16:50
V
22 °C 10 km+ - 310°   310° 9 kt METAR EDDS 211450Z AUTO 31009KT 270V350 CAVOK 22/07 Q1021 NOSIG
Datos más antiguos

Descarga nuestra aplicación

Acceso fácil a todo el tiempo de la aviación en tu teléfono móvil y tableta.
Con muchas funciones no disponibles en el sitio web, como la compatibilidad sin conexión y una lista personal de aeropuertos.

Nosotros y terceros seguimos tu comportamiento en Internet en nuestro sitio web con cookies. Si continúas, asumimos que estás de acuerdo con nuestra política de cookies. Más información